EKEB

Esbjerg Airport

Esbjerg, Denmark
METAR EKEB 121020Z AUTO 02006KT 9999 BKN025/// 03/00 Q1029
Observed Flight Rules
Dec-12 @ 10:20 UTC (22 minutes ago) Marginal Visual Flight Rules
Wind Visibility Clouds
20° at 6 knots 10,000+ meters
  • Broken at 2,500' AGL
Temperatures Readings
Current 3°C / 37°F
Dewpoint 0°C / 32°F
Humidity 81%
Altimeter 30.38" Hg
Pressure 1029 hPa
Elevation 29
METAR EKEB 121020Z AUTO 02006KT 9999 BKN025/// 03/00 Q1029
Observed Flight Rules
Dec-12 @ 10:20 UTC
(22 minutes ago)
MVFR
Wind Visibility
20° at 6 knots 10,000+ meters
Clouds
  • Broken at 2,500' AGL
Temperature Dewpoint
3°C / 37°F 0°C / 32°F
Humidity Altimeter Pressure
81% 30.38" Hg 1029 hPa